Time;durP1;ratioP1;P1;durP2;ratioP2;P2;SDS_P1;SDS_P2;PMS_P1;PMS_P2;Temp;Humidity;BMP_temperature;BMP_pressure;BME280_temperature;BME280_humidity;BME280_pressure;Samples;Min_cycle;Max_cycle;Signal;HPM_P1;HPM_P2
2024/03/27 00:00:23;;;;;;;;;18.00;18.00;;;;;8.24;60.95;98249.91;6274548;20;2829442;-39
2024/03/27 00:02:51;;;;;;;;;18.00;15.00;;;;;8.20;61.09;98252.91;6272628;20;3542049;-39
2024/03/27 00:05:18;;;;;;;;;15.00;13.00;;;;;8.23;60.99;98255.34;6269772;20;3545067;-39
2024/03/27 00:07:45;;;;;;;;;20.50;18.00;;;;;8.27;61.20;98251.50;6309001;20;2832596;-39
2024/03/27 00:10:13;;;;;;;;;15.00;13.00;;;;;8.31;60.11;98251.13;6273969;20;3534846;-39
2024/03/27 00:12:40;;;;;;;;;13.33;13.00;;;;;8.22;60.08;98251.00;6304803;20;3552367;-38
2024/03/27 00:15:08;;;;;;;;;17.67;15.33;;;;;8.22;60.87;98242.97;6302964;20;3542152;-38
2024/03/27 00:17:35;;;;;;;;;15.67;14.00;;;;;8.25;61.09;98240.06;6302498;20;3539966;-39
2024/03/27 00:20:02;;;;;;;;;4.00;0.00;;;;;8.23;61.74;98237.50;6306303;20;3451325;-39
2024/03/27 00:22:30;;;;;;;;;13.67;13.33;;;;;8.31;61.37;98234.25;6273188;20;2810917;-39
2024/03/27 00:24:57;;;;;;;;;17.00;13.33;;;;;8.28;61.86;98229.13;6302811;20;3556659;-38
2024/03/27 00:27:24;;;;;;;;;18.00;14.00;;;;;8.30;62.27;98240.56;6271176;20;3532818;-39
2024/03/27 00:29:52;;;;;;;;;13.67;12.33;;;;;8.13;62.06;98231.97;6304530;20;3536714;-38
2024/03/27 00:32:19;;;;;;;;;13.50;12.00;;;;;8.14;63.03;98233.69;6305858;20;2802467;-39
2024/03/27 00:34:47;;;;;;;;;16.67;15.00;;;;;8.12;62.77;98224.94;6272004;20;3534789;-39
2024/03/27 00:37:13;;;;;;;;;14.00;12.00;;;;;8.14;62.73;98228.34;6305144;20;2810673;-38
2024/03/27 00:39:41;;;;;;;;;14.33;14.00;;;;;8.10;63.21;98226.88;6273081;20;3527373;-39
2024/03/27 00:42:09;;;;;;;;;11.40;11.20;;;;;8.21;63.21;98225.22;6328568;20;2799257;-40
2024/03/27 00:44:37;;;;;;;;;21.33;19.33;;;;;8.10;63.76;98221.50;6272099;20;3572158;-39
2024/03/27 00:47:04;;;;;;;;;16.67;15.33;;;;;8.01;63.48;98216.88;6273402;20;3547215;-38
2024/03/27 00:49:31;;;;;;;;;18.00;14.50;;;;;8.20;63.61;98212.81;6306737;20;2813987;-39
2024/03/27 00:51:59;;;;;;;;;11.40;11.20;;;;;8.17;63.25;98215.72;6299444;20;2791981;-39
2024/03/27 00:54:26;;;;;;;;;17.00;16.00;;;;;8.28;63.23;98221.13;6272360;20;2500284;-39
2024/03/27 00:56:52;;;;;;;;;10.50;10.50;;;;;8.16;63.36;98216.69;6272502;20;2787776;-39
2024/03/27 00:59:20;;;;;;;;;6.50;6.50;;;;;8.34;62.88;98213.47;6292650;20;1811845;-39
2024/03/27 01:01:47;;;;;;;;;13.50;13.00;;;;;8.30;62.97;98211.16;6307223;20;2796194;-39
2024/03/27 01:04:14;;;;;;;;;15.00;14.00;;;;;8.27;62.52;98209.56;6271756;20;2807574;-38
2024/03/27 01:06:42;;;;;;;;;15.60;13.40;;;;;8.32;63.02;98218.09;6296792;20;2803406;-39
2024/03/27 01:09:10;;;;;;;;;12.00;11.67;;;;;8.35;62.72;98209.84;6273389;20;3528404;-40
2024/03/27 01:11:37;;;;;;;;;13.33;13.33;;;;;8.39;63.36;98220.28;6303151;20;2802471;-39
2024/03/27 01:14:04;;;;;;;;;12.00;11.00;;;;;8.36;62.83;98208.00;6302741;20;2808106;-41
2024/03/27 01:16:32;;;;;;;;;14.00;11.00;;;;;8.20;63.02;98215.50;6302722;20;2792068;-39
2024/03/27 01:18:59;;;;;;;;;11.33;11.00;;;;;8.21;63.54;98207.34;6273391;20;2789883;-38
2024/03/27 01:21:27;;;;;;;;;17.33;15.33;;;;;8.13;63.31;98210.59;6302484;20;3559929;-38
2024/03/27 01:23:54;;;;;;;;;12.00;12.00;;;;;8.28;63.47;98213.09;6306939;20;2802511;-39
2024/03/27 01:26:20;;;;;;;;;12.00;11.00;;;;;8.35;64.32;98200.97;6270791;20;2791957;-39
2024/03/27 01:28:48;;;;;;;;;12.67;11.33;;;;;8.31;63.61;98205.69;6269888;20;2794213;-38
2024/03/27 01:31:15;;;;;;;;;19.67;14.33;;;;;8.45;63.28;98209.16;6300865;20;3538304;-38
2024/03/27 01:33:46;;;;;;;;;11.00;10.00;;;;;8.36;64.00;98199.97;6302336;20;2789887;-38
2024/03/27 01:36:14;;;;;;;;;16.80;11.20;;;;;8.33;64.19;98200.22;6326604;20;2810772;-40
2024/03/27 01:38:41;;;;;;;;;12.00;12.00;;;;;8.36;63.56;98200.81;6269746;20;2796141;-38
2024/03/27 01:41:09;;;;;;;;;14.00;13.20;;;;;8.42;63.73;98194.19;6295196;20;2799376;-38
2024/03/27 01:43:38;;;;;;;;;15.20;11.20;;;;;8.36;63.74;98199.97;6296447;20;2797141;-39
2024/03/27 01:46:10;;;;;;;;;14.80;11.60;;;;;8.41;63.74;98197.84;6295092;20;2808182;-38
2024/03/27 01:48:37;;;;;;;;;12.00;12.00;;;;;8.39;64.31;98202.44;6272387;20;2799246;-39
2024/03/27 01:51:06;;;;;;;;;11.67;11.67;;;;;8.37;64.46;98193.66;6271606;20;2794453;-38
2024/03/27 01:53:35;;;;;;;;;12.20;10.60;;;;;8.43;64.91;98195.91;6325860;20;2799372;-38
2024/03/27 01:56:02;;;;;;;;;15.00;10.50;;;;;8.50;65.31;98197.13;6268032;20;2791966;-39
2024/03/27 01:58:30;;;;;;;;;12.33;11.00;;;;;8.52;64.71;98195.19;6270273;20;2801629;-39
2024/03/27 02:00:59;;;;;;;;;11.80;11.00;;;;;8.54;64.42;98195.94;6324701;20;2784657;-39
2024/03/27 02:03:28;;;;;;;;;12.67;12.67;;;;;8.59;64.65;98194.72;6269707;20;2790984;-39
2024/03/27 02:05:55;;;;;;;;;15.50;11.00;;;;;8.61;63.98;98192.75;6298992;20;2794108;-40
2024/03/27 02:08:21;;;;;;;;;13.50;12.00;;;;;8.53;64.24;98191.56;6270740;20;2787536;-38
2024/03/27 02:10:50;;;;;;;;;10.80;10.80;;;;;8.57;64.27;98193.00;6297298;20;2792056;-38
2024/03/27 02:13:16;;;;;;;;;14.00;11.00;;;;;8.70;64.17;98190.25;6273073;20;2787834;-38
2024/03/27 02:15:44;;;;;;;;;14.67;14.33;;;;;8.81;64.31;98183.19;6268726;20;3527419;-39
2024/03/27 02:18:12;;;;;;;;;49.00;39.00;;;;;8.68;64.70;98189.50;6300187;20;2862892;-40
2024/03/27 02:21:22;;;;;;;;;12.00;12.00;;;;;8.62;65.24;98179.28;6303608;20;2792144;-38
2024/03/27 02:24:07;;;;;;;;;12.50;11.00;;;;;8.73;64.71;98181.13;6267693;20;2788844;-39
2024/03/27 02:26:38;;;;;;;;;11.80;11.80;;;;;8.70;65.90;98178.69;6295344;20;2803452;-39
2024/03/27 02:29:05;;;;;;;;;12.00;11.00;;;;;8.94;64.91;98174.06;6277116;20;2789028;-41
2024/03/27 02:31:31;;;;;;;;;13.50;11.00;;;;;8.69;65.39;98171.63;6275289;20;2789853;-38
2024/03/27 02:33:59;;;;;;;;;12.20;9.60;;;;;8.85;65.60;98174.81;6300418;20;2771175;-38
2024/03/27 02:36:26;;;;;;;;;8.00;8.00;;;;;9.06;65.70;98176.75;6278316;20;2744179;-39
2024/03/27 02:38:53;;;;;;;;;14.00;10.00;;;;;8.87;65.46;98167.50;6274368;20;2788880;-38
2024/03/27 02:41:19;;;;;;;;;10.50;10.50;;;;;9.15;65.55;98168.00;6276526;20;2786885;-38
2024/03/27 02:43:47;;;;;;;;;9.20;9.20;;;;;8.89;65.70;98168.22;6300216;20;2750311;-38
2024/03/27 02:46:14;;;;;;;;;10.50;8.00;;;;;8.80;66.53;98158.28;6306867;20;2773246;-39
2024/03/27 02:48:41;;;;;;;;;11.00;11.00;;;;;8.94;66.73;98163.38;6276863;20;2737821;-39
2024/03/27 02:51:07;;;;;;;;;8.50;8.50;;;;;8.97;66.50;98159.59;6275926;20;2744138;-38
2024/03/27 02:53:34;;;;;;;;;9.50;9.50;;;;;8.84;66.97;98149.00;6313634;20;2766906;-41
2024/03/27 02:56:00;;;;;;;;;11.00;11.00;;;;;8.93;67.67;98144.78;6274342;20;2791977;-39
2024/03/27 02:58:27;;;;;;;;;15.00;11.00;;;;;8.91;67.77;98141.34;6274308;20;2790955;-38
2024/03/27 03:00:54;;;;;;;;;12.50;9.50;;;;;8.92;68.15;98141.22;6276185;20;2779837;-38
2024/03/27 03:03:20;;;;;;;;;17.00;11.00;;;;;8.99;67.74;98137.09;6269256;20;2685803;-38
2024/03/27 03:05:47;;;;;;;;;13.00;10.00;;;;;8.98;68.26;98122.00;6269524;20;2791934;-38
2024/03/27 03:08:13;;;;;;;;;10.00;9.00;;;;;8.89;69.05;98120.06;6272525;20;2770076;-38
2024/03/27 03:10:40;;;;;;;;;10.00;10.00;;;;;8.81;69.16;98113.63;6273640;20;2781617;-39
2024/03/27 03:13:06;;;;;;;;;13.00;11.50;;;;;8.88;69.29;98121.03;6271032;20;2792996;-38
2024/03/27 03:15:35;;;;;;;;;8.00;7.00;;;;;8.72;70.13;98117.88;6298020;20;2730513;-39
2024/03/27 03:18:02;;;;;;;;;7.25;4.00;;;;;8.77;70.38;98127.25;6324551;20;1815991;-38
2024/03/27 03:20:30;;;;;;;;;8.25;8.25;;;;;8.60;71.09;98134.91;6324896;20;1814970;-38
2024/03/27 03:22:57;;;;;;;;;7.25;7.25;;;;;8.74;70.85;98130.19;6325249;20;1810954;-38
2024/03/27 03:25:23;;;;;;;;;8.00;7.00;;;;;8.83;70.87;98133.94;6308173;20;2735662;-39
2024/03/27 03:27:50;;;;;;;;;9.00;8.00;;;;;8.90;71.16;98126.25;6309200;20;2747339;-38
2024/03/27 03:30:17;;;;;;;;;7.00;7.00;;;;;9.06;70.62;98140.13;6308846;20;2737789;-39
2024/03/27 03:32:45;;;;;;;;;9.60;8.60;;;;;8.64;71.79;98144.41;6329785;20;2761757;-38
2024/03/27 03:35:12;;;;;;;;;9.00;7.50;;;;;8.68;72.68;98135.13;6306090;20;2745082;-38
2024/03/27 03:37:40;;;;;;;;;9.40;8.40;;;;;8.77;73.16;98137.94;6299444;20;2754551;-38
2024/03/27 03:40:08;;;;;;;;;12.00;9.00;;;;;8.86;73.89;98140.88;6305919;20;2764873;-39
2024/03/27 03:42:35;;;;;;;;;8.50;5.00;;;;;8.92;73.37;98138.53;6277411;20;2742145;-38
2024/03/27 03:45:03;;;;;;;;;8.50;8.00;;;;;8.89;73.88;98130.75;6276299;20;2738885;-41
2024/03/27 03:47:29;;;;;;;;;11.50;8.00;;;;;8.85;74.64;98132.00;6272185;20;2764962;-39
2024/03/27 03:49:56;;;;;;;;;8.50;7.00;;;;;8.79;75.03;98135.13;6276611;20;2732720;-38
2024/03/27 03:52:22;;;;;;;;;8.00;7.00;;;;;8.91;75.54;98141.34;6305933;20;2748333;-39
2024/03/27 03:54:49;;;;;;;;;10.00;7.00;;;;;8.78;76.93;98128.09;6274019;20;2761830;-39
2024/03/27 03:57:15;;;;;;;;;5.00;5.00;;;;;8.86;77.47;98132.84;6276201;20;2742999;-39
2024/03/27 03:59:43;;;;;;;;;7.00;6.00;;;;;8.94;77.59;98136.59;6293732;20;1804646;-38
2024/03/27 04:02:10;;;;;;;;;6.50;6.50;;;;;9.14;77.63;98137.69;6308276;20;2748312;-38
2024/03/27 04:04:36;;;;;;;;;7.00;6.00;;;;;9.19;78.21;98140.00;6275985;20;2725299;-38
2024/03/27 04:07:03;;;;;;;;;4.00;4.00;;;;;9.38;78.37;98140.19;6303379;20;2748305;-39
2024/03/27 04:09:31;;;;;;;;;5.00;5.00;;;;;9.57;78.45;98130.66;6308235;20;2750322;-38
2024/03/27 04:11:58;;;;;;;;;4.00;4.00;;;;;9.64;77.52;98137.22;6276620;20;2756585;-39
2024/03/27 04:14:24;;;;;;;;;4.50;4.50;;;;;9.66;77.76;98137.91;6274077;20;2739827;-38
2024/03/27 04:16:51;;;;;;;;;5.00;5.00;;;;;9.64;78.55;98140.75;6276360;20;2744134;-40
2024/03/27 04:19:17;;;;;;;;;4.00;4.00;;;;;9.57;79.00;98149.41;6276120;20;2756957;-38
2024/03/27 04:21:44;;;;;;;;;6.50;5.00;;;;;9.61;78.61;98157.09;6275808;20;2750305;-38
2024/03/27 04:24:11;;;;;;;;;5.00;5.00;;;;;9.70;78.42;98139.38;6293081;20;1814609;-38
2024/03/27 04:26:38;;;;;;;;;6.00;5.00;;;;;9.80;77.87;98139.47;6306285;20;2728431;-40
2024/03/27 04:29:04;;;;;;;;;5.00;5.00;;;;;9.77;78.15;98139.72;6306401;20;2745084;-40
2024/03/27 04:31:32;;;;;;;;;10.00;5.50;;;;;9.78;78.24;98138.75;6276993;20;2747242;-38
2024/03/27 04:33:58;;;;;;;;;5.00;5.00;;;;;9.77;78.06;98140.59;6275309;20;2749396;-42
2024/03/27 04:36:25;;;;;;;;;4.00;4.00;;;;;9.96;77.23;98141.72;6275405;20;2755485;-38
2024/03/27 04:38:52;;;;;;;;;4.00;4.00;;;;;9.85;78.35;98135.44;6275519;20;2754452;-41
2024/03/27 04:41:21;;;;;;;;;6.00;6.00;;;;;9.87;77.58;98125.44;6315566;20;1796141;-38
2024/03/27 04:43:49;;;;;;;;;5.50;1.25;;;;;9.92;78.34;98127.72;6322214;20;1825399;-39
2024/03/27 04:46:15;;;;;;;;;6.00;5.00;;;;;10.07;77.88;98136.31;6306241;20;2741963;-40
2024/03/27 04:48:42;;;;;;;;;4.00;4.00;;;;;10.16;77.51;98134.66;6276182;20;2753490;-39
2024/03/27 04:51:09;;;;;;;;;0.75;0.75;;;;;10.15;78.15;98128.47;6294193;20;1803457;-38
2024/03/27 04:53:36;;;;;;;;;5.00;4.00;;;;;10.28;77.49;98137.19;6308099;20;2738979;-39
2024/03/27 04:56:03;;;;;;;;;6.00;5.00;;;;;10.21;77.69;98130.59;6306853;20;2744017;-48
2024/03/27 04:58:29;;;;;;;;;5.00;5.00;;;;;10.26;78.11;98130.22;6276402;20;2742994;-48
2024/03/27 05:00:56;;;;;;;;;7.00;4.00;;;;;10.41;77.49;98126.25;6307220;20;2748239;-47
2024/03/27 05:03:22;;;;;;;;;6.00;5.00;;;;;10.27;78.32;98140.88;6275015;20;2745080;-47
2024/03/27 05:05:49;;;;;;;;;6.00;6.00;;;;;10.39;78.09;98151.53;6273869;20;2748216;-48
2024/03/27 05:08:16;;;;;;;;;4.00;4.00;;;;;10.41;78.29;98149.56;6276319;20;2745082;-47
2024/03/27 05:10:42;;;;;;;;;4.00;4.00;;;;;10.39;78.93;98140.78;6275747;20;2756653;-38
2024/03/27 05:13:09;;;;;;;;;6.00;5.00;;;;;10.40;79.15;98137.13;6276204;20;2748269;-38
2024/03/27 05:15:35;;;;;;;;;4.50;4.50;;;;;10.44;79.64;98135.88;6272041;20;2743025;-38
2024/03/27 05:18:03;;;;;;;;;6.50;5.00;;;;;10.38;79.98;98145.31;6290572;20;1815996;-39
2024/03/27 05:20:30;;;;;;;;;4.50;3.50;;;;;10.29;79.90;98146.97;6320125;20;1810782;-39
2024/03/27 05:22:57;;;;;;;;;3.50;3.50;;;;;10.46;79.69;98148.19;6305997;20;2748368;-39
2024/03/27 05:25:24;;;;;;;;;4.00;4.00;;;;;10.45;79.20;98141.13;6273219;20;2746080;-41
2024/03/27 05:27:50;;;;;;;;;8.00;5.00;;;;;10.47;79.22;98143.66;6273387;20;2745164;-39
2024/03/27 05:30:17;;;;;;;;;4.50;4.50;;;;;10.60;79.04;98138.94;6273731;20;2752381;-38
2024/03/27 05:32:44;;;;;;;;;6.50;6.00;;;;;10.66;78.49;98137.56;6292009;20;1800375;-38
2024/03/27 05:35:11;;;;;;;;;5.00;5.00;;;;;10.66;78.81;98138.41;6304896;20;2742106;-39
2024/03/27 05:37:37;;;;;;;;;5.00;4.00;;;;;10.77;78.40;98141.03;6275065;20;2750309;-39
2024/03/27 05:40:05;;;;;;;;;5.50;5.50;;;;;10.82;77.95;98137.06;6274555;20;2748258;-39
2024/03/27 05:42:32;;;;;;;;;4.00;4.00;;;;;10.81;78.15;98136.22;6275656;20;2746174;-38
2024/03/27 05:44:58;;;;;;;;;5.00;5.00;;;;;10.88;78.19;98139.22;6272869;20;2745092;-38
2024/03/27 05:47:25;;;;;;;;;6.00;5.00;;;;;10.64;79.49;98139.53;6272265;20;2747311;-39
2024/03/27 05:49:52;;;;;;;;;2.75;2.75;;;;;10.55;80.24;98130.44;6292031;20;1794552;-39
2024/03/27 05:52:19;;;;;;;;;7.00;5.00;;;;;10.79;79.70;98135.50;6306902;20;2740979;-38
2024/03/27 05:54:45;;;;;;;;;4.00;4.00;;;;;10.74;80.43;98127.88;6304672;20;2750269;-39
2024/03/27 05:57:12;;;;;;;;;7.00;5.00;;;;;10.89;79.28;98128.34;6274823;20;2734679;-40
2024/03/27 05:59:38;;;;;;;;;5.00;4.00;;;;;10.58;81.10;98124.78;6274992;20;2747204;-42
2024/03/27 06:02:08;;;;;;;;;5.00;5.00;;;;;10.82;80.03;98120.97;6316508;20;1793495;-39
2024/03/27 06:04:35;;;;;;;;;7.25;7.25;;;;;11.20;79.26;98122.94;6295380;20;1811871;-40
2024/03/27 06:07:02;;;;;;;;;9.00;7.00;;;;;10.70;81.67;98121.06;6310946;20;2750316;-39
2024/03/27 06:09:29;;;;;;;;;38.00;31.50;;;;;11.09;79.90;98123.91;6276166;20;2860772;-41
2024/03/27 06:11:57;;;;;;;;;22.33;22.00;;;;;11.48;77.25;98098.94;6276862;20;3581584;-39
2024/03/27 06:14:23;;;;;;;;;3.00;3.00;;;;;11.92;75.30;98108.34;6277633;20;2744370;-41
2024/03/27 06:16:50;;;;;;;;;14.50;14.00;;;;;12.06;74.70;98113.31;6280095;20;2804576;-41
2024/03/27 06:19:16;;;;;;;;;6.50;6.50;;;;;12.00;74.41;98100.41;6281961;20;2743094;-40
2024/03/27 06:21:44;;;;;;;;;12.33;11.00;;;;;12.06;73.54;98104.41;6276342;20;2791018;-43
2024/03/27 06:24:10;;;;;;;;;10.00;8.00;;;;;12.39;73.69;98100.38;6307139;20;2763859;-40
2024/03/27 06:26:37;;;;;;;;;4.50;4.50;;;;;12.31;73.38;98100.25;6279908;20;2738839;-40
2024/03/27 06:29:03;;;;;;;;;6.00;6.00;;;;;12.13;74.57;98096.59;6278810;20;2740882;-41
2024/03/27 06:31:30;;;;;;;;;6.00;6.00;;;;;12.40;72.96;98104.78;6279576;20;2752422;-38
2024/03/27 06:33:57;;;;;;;;;5.00;5.00;;;;;13.01;71.55;98105.28;6278522;20;2739862;-39
2024/03/27 06:36:23;;;;;;;;;5.00;5.00;;;;;13.11;70.36;98103.38;6279559;20;2745040;-41
2024/03/27 06:38:50;;;;;;;;;5.00;3.00;;;;;12.22;72.17;98093.06;6279551;20;2736831;-41
2024/03/27 06:41:17;;;;;;;;;5.00;5.00;;;;;12.81;71.14;98091.03;6278903;20;2743591;-39
2024/03/27 06:43:47;;;;;;;;;3.50;3.50;;;;;13.49;69.48;98075.38;6296244;20;1815998;-39
2024/03/27 06:46:14;;;;;;;;;5.00;5.00;;;;;13.72;67.54;98086.56;6311414;20;2745032;-39
2024/03/27 06:48:51;;;;;;;;;5.57;4.86;;;;;13.71;68.40;98082.16;6319206;20;1792039;-41
2024/03/27 06:51:19;;;;;;;;;3.50;3.50;;;;;13.01;68.02;98071.09;6309828;20;2752515;-42
2024/03/27 06:53:45;;;;;;;;;3.00;3.00;;;;;13.50;67.43;98081.63;6282302;20;2632606;-43
2024/03/27 06:56:11;;;;;;;;;4.00;4.00;;;;;13.47;67.63;98095.41;6277826;20;2747235;-41
2024/03/27 06:58:38;;;;;;;;;4.00;4.00;;;;;13.65;66.62;98093.56;6275875;20;2749338;-43
2024/03/27 07:01:06;;;;;;;;;5.80;4.60;;;;;13.25;68.08;98094.81;6302826;20;2745123;-41
2024/03/27 07:03:33;;;;;;;;;3.00;3.00;;;;;13.71;65.59;98084.84;6309142;20;2748235;-42
2024/03/27 07:06:00;;;;;;;;;5.00;5.00;;;;;13.72;65.52;98075.78;6279881;20;2738847;-42
2024/03/27 07:08:26;;;;;;;;;6.00;3.00;;;;;14.02;63.67;98087.19;6277867;20;2752369;-39
2024/03/27 07:11:03;;;;;;;;;4.50;4.50;;;;;13.75;64.66;98080.88;6280148;20;2749274;-39
2024/03/27 07:13:30;;;;;;;;;5.00;3.00;;;;;13.71;63.50;98076.78;6276311;20;2751419;-39
2024/03/27 07:15:57;;;;;;;;;4.50;4.50;;;;;13.87;62.29;98083.31;6281793;20;2747216;-40
2024/03/27 07:18:23;;;;;;;;;2.50;2.00;;;;;13.92;62.00;98083.72;6280416;20;2738825;-39
2024/03/27 07:20:57;;;;;;;;;4.00;4.00;;;;;13.56;62.92;98070.22;6280420;20;2747217;-40
2024/03/27 07:23:24;;;;;;;;;3.00;3.00;;;;;13.73;63.20;98082.03;6280217;20;2737833;-40
2024/03/27 07:25:51;;;;;;;;;5.00;3.50;;;;;14.46;61.32;98076.38;6284633;20;2750540;-40
2024/03/27 07:28:17;;;;;;;;;3.00;3.00;;;;;14.40;61.41;98071.59;6279706;20;2744070;-42
2024/03/27 07:30:52;;;;;;;;;6.00;5.20;;;;;14.39;61.63;98078.00;6302312;20;2741996;-41
2024/03/27 07:33:19;;;;;;;;;8.00;3.50;;;;;14.49;60.98;98076.06;6309612;20;2750313;-40
2024/03/27 07:35:45;;;;;;;;;3.50;3.50;;;;;13.77;63.85;98084.25;6280522;20;2751889;-44
2024/03/27 07:38:12;;;;;;;;;1.00;1.00;;;;;13.03;66.29;98079.88;6282976;20;2737893;-41
2024/03/27 07:40:38;;;;;;;;;5.00;4.00;;;;;13.13;66.72;98074.44;6280560;20;2747229;-44
2024/03/27 07:43:09;;;;;;;;;3.86;3.86;;;;;13.44;67.27;98080.38;6327961;20;3465926;-41
2024/03/27 07:45:35;;;;;;;;;3.00;3.00;;;;;13.26;67.69;98091.13;6308674;20;2750358;-41
2024/03/27 07:48:02;;;;;;;;;3.50;3.50;;;;;13.05;68.63;98077.03;6279825;20;2744058;-42
2024/03/27 07:50:28;;;;;;;;;2.00;2.00;;;;;12.89;69.50;98094.69;6279323;20;2739862;-44
2024/03/27 07:52:56;;;;;;;;;4.50;3.50;;;;;13.13;68.54;98074.44;6278333;20;2741965;-41
2024/03/27 07:55:22;;;;;;;;;4.00;4.00;;;;;13.11;68.99;98081.81;6276755;20;2753504;-41
2024/03/27 07:57:49;;;;;;;;;4.00;4.00;;;;;13.57;67.86;98070.06;6281114;20;2755517;-45
2024/03/27 08:00:16;;;;;;;;;6.50;4.50;;;;;13.01;69.81;98076.50;6278229;20;2752412;-41
2024/03/27 08:02:43;;;;;;;;;3.00;3.00;;;;;13.34;68.92;98076.91;6282295;20;2744039;-41
2024/03/27 08:05:09;;;;;;;;;4.00;4.00;;;;;13.12;69.92;98084.38;6277879;20;2756557;-41
2024/03/27 08:07:36;;;;;;;;;4.50;4.50;;;;;12.87;70.59;98076.97;6280184;20;2752372;-41
2024/03/27 08:10:04;;;;;;;;;5.00;4.00;;;;;12.75;70.58;98089.78;6276613;20;2754518;-41
2024/03/27 08:12:34;;;;;;;;;3.71;3.71;;;;;12.38;72.00;98079.84;6321391;20;3449205;-40
2024/03/27 08:15:01;;;;;;;;;3.50;3.50;;;;;12.44;72.81;98089.19;6309393;20;2741998;-41
2024/03/27 08:17:27;;;;;;;;;3.00;3.00;;;;;12.27;73.44;98080.03;6277839;20;2745108;-43
2024/03/27 08:19:54;;;;;;;;;5.00;2.50;;;;;12.86;72.01;98072.59;6276772;20;2754448;-40
2024/03/27 08:22:21;;;;;;;;;4.50;4.50;;;;;12.49;73.73;98076.97;6296343;20;1813988;-41
2024/03/27 08:24:51;;;;;;;;;5.00;5.00;;;;;12.41;73.98;98073.31;6308471;20;2743406;-41
2024/03/27 08:27:17;;;;;;;;;2.50;2.50;;;;;12.57;73.06;98057.41;6275459;20;2750282;-41
2024/03/27 08:29:44;;;;;;;;;5.00;5.00;;;;;12.80;71.81;98067.81;6280598;20;2729510;-42
2024/03/27 08:32:10;;;;;;;;;3.50;3.50;;;;;13.13;71.59;98063.66;6277093;20;2756567;-43
2024/03/27 08:34:38;;;;;;;;;3.00;3.00;;;;;12.92;71.26;98059.34;6299239;20;1807716;-41
2024/03/27 08:37:04;;;;;;;;;4.50;4.50;;;;;13.14;72.03;98052.75;6309343;20;2740439;-43
2024/03/27 08:39:32;;;;;;;;;5.00;4.00;;;;;12.87;71.84;98052.72;6291199;20;1806648;-41
2024/03/27 08:42:02;;;;;;;;;8.00;6.00;;;;;13.31;70.89;98045.69;6350036;20;2473204;-42
2024/03/27 08:44:28;;;;;;;;;6.00;5.00;;;;;13.00;70.92;98053.22;6309786;20;2750289;-41
2024/03/27 08:46:55;;;;;;;;;6.00;4.00;;;;;12.96;72.17;98052.69;6276472;20;2748296;-41
2024/03/27 08:49:21;;;;;;;;;2.00;2.00;;;;;13.04;71.49;98053.78;6276324;20;2748295;-42
2024/03/27 08:51:48;;;;;;;;;6.00;5.00;;;;;12.67;72.63;98046.59;6277466;20;2743080;-40
2024/03/27 08:54:14;;;;;;;;;6.00;4.50;;;;;13.26;71.71;98037.22;6276036;20;2750262;-41
2024/03/27 08:56:41;;;;;;;;;6.00;4.50;;;;;13.19;71.36;98044.19;6278474;20;2743057;-41
2024/03/27 08:59:07;;;;;;;;;5.50;4.00;;;;;13.01;73.02;98046.84;6276249;20;2745213;-40
2024/03/27 09:01:34;;;;;;;;;8.00;7.00;;;;;13.11;71.21;98033.31;6274895;20;2734636;-39
2024/03/27 09:04:00;;;;;;;;;7.50;6.00;;;;;13.48;70.81;98029.69;6276122;20;2741761;-40
2024/03/27 09:06:27;;;;;;;;;6.00;6.00;;;;;13.32;69.79;98030.38;6277369;20;2741957;-40
2024/03/27 09:08:53;;;;;;;;;10.00;7.00;;;;;13.41;70.72;98029.47;6273180;20;2761730;-40
2024/03/27 09:11:21;;;;;;;;;7.50;5.00;;;;;12.89;72.41;98040.81;6279637;20;2745161;-42
2024/03/27 09:13:47;;;;;;;;;6.00;6.00;;;;;13.04;72.26;98030.38;6282663;20;2619061;-39
2024/03/27 09:16:15;;;;;;;;;7.80;6.20;;;;;13.47;70.87;98034.22;6298790;20;2744064;-40
2024/03/27 09:18:42;;;;;;;;;5.00;5.00;;;;;13.33;71.18;98022.16;6307174;20;2741111;-40
2024/03/27 09:21:10;;;;;;;;;6.00;6.00;;;;;13.28;72.43;98029.00;6277105;20;2743046;-40
2024/03/27 09:23:37;;;;;;;;;5.50;5.50;;;;;13.23;72.23;98026.72;6279475;20;2738972;-42
2024/03/27 09:26:04;;;;;;;;;4.50;4.50;;;;;13.40;70.73;98033.16;6277998;20;2747144;-41
2024/03/27 09:28:31;;;;;;;;;5.00;5.00;;;;;13.83;71.20;98039.63;6275872;20;2739082;-41
2024/03/27 09:31:04;;;;;;;;;7.00;5.00;;;;;14.19;69.27;98031.47;6276317;20;2744057;-40
2024/03/27 09:33:30;;;;;;;;;6.00;5.00;;;;;13.59;70.77;98040.25;6276512;20;2743152;-40
2024/03/27 09:35:58;;;;;;;;;3.25;2.00;;;;;13.84;70.05;98044.84;6288743;20;1787938;-41
2024/03/27 09:38:24;;;;;;;;;3.00;3.00;;;;;13.28;70.78;98037.09;6308331;20;2739921;-42
2024/03/27 09:40:58;;;;;;;;;7.00;5.00;;;;;13.43;72.06;98026.59;6275670;20;2737859;-40
2024/03/27 09:43:25;;;;;;;;;5.50;4.50;;;;;13.79;71.38;98033.69;6276186;20;2743002;-43
2024/03/27 09:45:53;;;;;;;;;6.00;6.00;;;;;13.71;70.97;98030.91;6274285;20;2733679;-40
2024/03/27 09:48:26;;;;;;;;;5.00;5.00;;;;;13.81;71.37;98020.88;6275471;20;2745126;-42
2024/03/27 09:50:54;;;;;;;;;4.00;4.00;;;;;13.87;70.53;98029.38;6281841;20;2748208;-40
2024/03/27 09:53:23;;;;;;;;;6.40;6.40;;;;;13.77;70.82;98030.31;6300927;20;2736771;-42
2024/03/27 09:55:50;;;;;;;;;4.00;4.00;;;;;13.98;70.55;98021.88;6304185;20;2748191;-40
2024/03/27 09:58:18;;;;;;;;;6.00;6.00;;;;;14.28;70.52;98023.25;6279333;20;2748209;-42
2024/03/27 10:00:46;;;;;;;;;5.60;4.20;;;;;14.10;70.48;98017.06;6297871;20;2740910;-41
2024/03/27 10:03:13;;;;;;;;;9.00;7.50;;;;;14.40;70.04;98023.88;6307702;20;2736772;-40
2024/03/27 10:05:45;;;;;;;;;7.00;6.00;;;;;14.18;69.97;98021.69;6274447;20;2746182;-41
2024/03/27 10:08:15;;;;;;;;;5.00;5.00;;;;;14.46;70.14;98007.00;6275981;20;2742135;-41
2024/03/27 10:10:42;;;;;;;;;6.50;6.00;;;;;14.07;70.89;98003.91;6277905;20;2748235;-40
2024/03/27 10:13:08;;;;;;;;;8.00;8.00;;;;;14.79;69.45;97998.25;6274526;20;2744042;-41
2024/03/27 10:15:35;;;;;;;;;8.00;7.00;;;;;14.95;68.46;97992.88;6275638;20;2739994;-40
2024/03/27 10:18:03;;;;;;;;;7.00;7.00;;;;;15.41;66.70;97996.06;6276883;20;2731598;-43
2024/03/27 10:20:31;;;;;;;;;7.60;6.60;;;;;15.41;65.17;97987.09;6299754;20;2737926;-42
2024/03/27 10:22:58;;;;;;;;;6.00;6.00;;;;;15.15;65.98;97982.66;6307328;20;2736793;-42
2024/03/27 10:25:26;;;;;;;;;8.50;6.50;;;;;15.78;63.74;97997.47;6272817;20;2746119;-40
2024/03/27 10:27:52;;;;;;;;;7.00;7.00;;;;;15.31;65.37;97987.25;6275272;20;2731654;-42
2024/03/27 10:30:22;;;;;;;;;6.71;6.43;;;;;15.47;64.85;97986.41;6316078;20;3454589;-43
2024/03/27 10:32:49;;;;;;;;;7.00;6.50;;;;;16.50;62.12;97986.69;6306749;20;2735781;-42
2024/03/27 10:35:16;;;;;;;;;7.00;7.00;;;;;16.50;62.03;97988.56;6275836;20;2739918;-43
2024/03/27 10:37:48;;;;;;;;;7.50;7.50;;;;;16.44;60.62;97979.25;6275135;20;2732788;-44
2024/03/27 10:40:23;;;;;;;;;6.00;6.00;;;;;16.41;62.31;97957.94;6318996;20;3461722;-43
2024/03/27 10:43:32;;;;;;;;;7.50;7.50;;;;;17.44;59.40;97940.66;6305807;20;2744110;-43
2024/03/27 10:46:00;;;;;;;;;8.00;8.00;;;;;16.69;58.74;97931.22;6272730;20;2743080;-45
2024/03/27 10:48:27;;;;;;;;;8.00;6.00;;;;;16.39;62.34;97916.63;6277615;20;2740006;-41
2024/03/27 10:50:56;;;;;;;;;5.50;5.50;;;;;17.25;59.96;97913.00;6283906;20;2741382;-42
2024/03/27 10:53:25;;;;;;;;;6.00;6.00;;;;;17.55;57.72;97913.94;6282253;20;2740397;-47
2024/03/27 10:55:52;;;;;;;;;7.00;6.00;;;;;17.62;58.48;97932.22;6279248;20;2748252;-46
2024/03/27 10:58:22;;;;;;;;;7.60;5.80;;;;;16.64;60.25;97941.75;6305291;20;2743065;-42
2024/03/27 11:00:52;;;;;;;;;7.14;7.00;;;;;17.06;59.19;97929.72;6354558;20;3450295;-45
2024/03/27 11:03:21;;;;;;;;;6.40;6.40;;;;;16.54;60.73;97922.19;6332787;20;2738877;-41
2024/03/27 11:05:49;;;;;;;;;9.20;8.00;;;;;17.99;57.05;97920.53;6332131;20;2764955;-45
2024/03/27 11:08:19;;;;;;;;;6.60;5.40;;;;;17.05;59.01;97922.63;6302980;20;2744041;-45
2024/03/27 11:10:47;;;;;;;;;6.20;6.20;;;;;16.51;59.46;97919.78;6335042;20;2748211;-43
2024/03/27 11:13:18;;;;;;;;;5.40;5.40;;;;;16.08;62.91;97930.09;6336007;20;2732678;-42
2024/03/27 11:15:46;;;;;;;;;9.00;7.40;;;;;16.51;62.43;97938.75;6332318;20;2753410;-42
2024/03/27 11:18:18;;;;;;;;;8.40;8.20;;;;;16.41;62.69;97937.13;6332432;20;2748216;-42